Time;durP1;ratioP1;P1;durP2;ratioP2;P2;SDS_P1;SDS_P2;PMS_P1;PMS_P2;Temp;Humidity;BMP_temperature;BMP_pressure;BME280_temperature;BME280_humidity;BME280_pressure;Samples;Min_cycle;Max_cycle;Signal;HPM_P1;HPM_P2
2022/11/03 00:01:22;;;;;;;;;;;22.60;46.00;;;;;;474651;251;1235;-53
2022/11/03 00:03:24;;;;;;;;;;;22.50;46.00;;;;;;475055;251;1584;-53
2022/11/03 00:07:52;;;;;;;;;;;22.60;46.00;;;;;;462989;251;2181;-52
2022/11/03 00:09:53;;;;;;;;;;;22.50;46.00;;;;;;475073;251;1177;-53
2022/11/03 00:11:54;;;;;;;;;;;22.60;46.10;;;;;;474923;251;1180;-53
2022/11/03 00:13:56;;;;;;;;;;;22.50;46.00;;;;;;474775;251;1234;-53
2022/11/03 00:15:57;;;;;;;;;;;22.50;46.00;;;;;;474757;251;1375;-52
2022/11/03 00:17:58;;;;;;;;;;;22.50;46.00;;;;;;474739;251;1259;-52
2022/11/03 00:20:00;;;;;;;;;;;22.50;46.00;;;;;;474663;251;1226;-52
2022/11/03 00:22:01;;;;;;;;;;;22.50;46.00;;;;;;474984;251;1188;-53
2022/11/03 00:24:03;;;;;;;;;;;22.60;46.00;;;;;;475061;251;1186;-52
2022/11/03 00:26:04;;;;;;;;;;;22.50;46.00;;;;;;474654;251;1165;-53
2022/11/03 00:28:05;;;;;;;;;;;22.50;46.00;;;;;;474805;251;2164;-52
2022/11/03 00:30:07;;;;;;;;;;;22.50;46.00;;;;;;475057;251;1226;-52
2022/11/03 00:32:08;;;;;;;;;;;22.50;46.00;;;;;;474800;251;1202;-52
2022/11/03 00:34:09;;;;;;;;;;;22.50;46.00;;;;;;474767;251;1257;-53
2022/11/03 00:36:11;;;;;;;;;;;22.50;46.00;;;;;;475045;251;1218;-53
2022/11/03 00:38:12;;;;;;;;;;;22.50;46.00;;;;;;474592;251;1328;-53
2022/11/03 00:40:14;;;;;;;;;;;22.60;46.00;;;;;;474634;251;1212;-52
2022/11/03 00:42:15;;;;;;;;;;;22.60;46.00;;;;;;474927;251;1242;-52
2022/11/03 00:44:16;;;;;;;;;;;22.60;46.00;;;;;;474778;251;1261;-53
2022/11/03 00:46:18;;;;;;;;;;;22.60;46.00;;;;;;474926;251;1240;-53
2022/11/03 00:48:32;;;;;;;;;;;22.50;46.00;;;;;;474907;251;2164;-53
2022/11/03 00:50:33;;;;;;;;;;;22.50;46.00;;;;;;474612;251;2070;-52
2022/11/03 00:52:34;;;;;;;;;;;22.50;46.00;;;;;;474606;251;1254;-53
2022/11/03 00:54:35;;;;;;;;;;;22.50;46.00;;;;;;474728;251;1235;-51
2022/11/03 00:56:37;;;;;;;;;;;22.50;46.10;;;;;;474901;251;1262;-52
2022/11/03 00:58:38;;;;;;;;;;;22.50;46.00;;;;;;474748;251;1297;-53
2022/11/03 01:00:39;;;;;;;;;;;22.50;46.00;;;;;;475008;251;1322;-52
2022/11/03 01:02:41;;;;;;;;;;;22.50;46.00;;;;;;474667;251;1239;-52
2022/11/03 01:07:01;;;;;;;;;;;22.50;46.00;;;;;;474628;251;1243;-52
2022/11/03 01:09:03;;;;;;;;;;;22.50;46.00;;;;;;474616;251;2243;-53
2022/11/03 01:13:23;;;;;;;;;;;22.50;46.10;;;;;;475070;251;1406;-52
2022/11/03 01:15:25;;;;;;;;;;;22.50;46.00;;;;;;474632;251;1258;-52
2022/11/03 01:17:26;;;;;;;;;;;22.50;46.00;;;;;;474901;251;1185;-53
2022/11/03 01:19:27;;;;;;;;;;;22.60;46.10;;;;;;474680;251;1273;-53
2022/11/03 01:21:29;;;;;;;;;;;22.50;46.00;;;;;;474886;251;1414;-52
2022/11/03 01:23:30;;;;;;;;;;;22.50;46.00;;;;;;475008;251;1284;-52
2022/11/03 01:25:32;;;;;;;;;;;22.50;46.00;;;;;;474713;251;1334;-52
2022/11/03 01:27:33;;;;;;;;;;;22.50;46.00;;;;;;474654;251;1352;-53
2022/11/03 01:29:34;;;;;;;;;;;22.60;45.90;;;;;;474646;251;2169;-52
2022/11/03 01:31:36;;;;;;;;;;;22.60;46.00;;;;;;475102;251;1240;-53
2022/11/03 01:33:37;;;;;;;;;;;22.50;45.90;;;;;;475071;251;1211;-51
2022/11/03 01:35:38;;;;;;;;;;;22.50;45.90;;;;;;474866;251;1217;-53
2022/11/03 01:37:40;;;;;;;;;;;22.50;45.90;;;;;;474840;251;1224;-52
2022/11/03 01:39:41;;;;;;;;;;;22.50;46.00;;;;;;474659;251;1266;-52
2022/11/03 01:41:42;;;;;;;;;;;22.50;46.00;;;;;;475084;251;1248;-52
2022/11/03 01:43:44;;;;;;;;;;;22.50;46.00;;;;;;475108;251;1144;-52
2022/11/03 01:45:45;;;;;;;;;;;22.50;46.00;;;;;;475012;251;1114;-53
2022/11/03 01:47:46;;;;;;;;;;;22.50;46.00;;;;;;474678;251;1130;-53
2022/11/03 01:49:48;;;;;;;;;;;22.50;46.00;;;;;;475141;251;1195;-52
2022/11/03 01:51:49;;;;;;;;;;;22.50;46.00;;;;;;474841;251;1181;-53
2022/11/03 01:53:50;;;;;;;;;;;22.60;46.00;;;;;;475034;251;1117;-53
2022/11/03 01:55:52;;;;;;;;;;;22.50;46.00;;;;;;474910;251;1542;-53
2022/11/03 01:57:53;;;;;;;;;;;22.50;46.00;;;;;;474944;251;1578;-52
2022/11/03 01:59:54;;;;;;;;;;;22.50;46.00;;;;;;474855;251;1220;-52
2022/11/03 02:01:55;;;;;;;;;;;22.50;46.00;;;;;;474478;251;1620;-53
2022/11/03 02:03:57;;;;;;;;;;;22.50;46.00;;;;;;474849;251;1281;-53
2022/11/03 02:05:58;;;;;;;;;;;22.60;46.00;;;;;;474934;251;1424;-52
2022/11/03 02:07:59;;;;;;;;;;;22.60;46.00;;;;;;474568;251;2204;-53
2022/11/03 02:10:01;;;;;;;;;;;22.60;46.00;;;;;;475060;251;1208;-52
2022/11/03 02:12:08;;;;;;;;;;;22.60;46.00;;;;;;474607;251;1335;-53
2022/11/03 02:14:09;;;;;;;;;;;22.50;46.00;;;;;;474624;251;1418;-52
2022/11/03 02:16:11;;;;;;;;;;;22.50;46.00;;;;;;475082;251;1220;-51
2022/11/03 02:18:12;;;;;;;;;;;22.50;46.00;;;;;;474887;251;1367;-53
2022/11/03 02:20:13;;;;;;;;;;;22.50;46.00;;;;;;474633;251;1278;-52
2022/11/03 02:22:15;;;;;;;;;;;22.50;46.00;;;;;;474634;251;1232;-53
2022/11/03 02:24:16;;;;;;;;;;;22.50;46.00;;;;;;474798;251;1318;-51
2022/11/03 02:26:17;;;;;;;;;;;22.50;46.00;;;;;;474678;251;1301;-52
2022/11/03 02:28:19;;;;;;;;;;;22.50;46.00;;;;;;474748;251;2209;-53
2022/11/03 02:30:20;;;;;;;;;;;22.50;46.00;;;;;;474664;251;1329;-53
2022/11/03 02:32:22;;;;;;;;;;;22.50;46.00;;;;;;474570;251;1238;-52
2022/11/03 02:34:23;;;;;;;;;;;22.60;46.00;;;;;;474674;251;1324;-53
2022/11/03 02:36:24;;;;;;;;;;;22.60;46.00;;;;;;475084;251;1423;-52
2022/11/03 02:38:26;;;;;;;;;;;22.50;45.90;;;;;;475081;251;1311;-52
2022/11/03 02:40:27;;;;;;;;;;;22.50;45.90;;;;;;475078;251;1432;-52
2022/11/03 02:42:28;;;;;;;;;;;22.50;45.90;;;;;;475034;251;1202;-52
2022/11/03 02:44:29;;;;;;;;;;;22.60;46.00;;;;;;474669;251;1320;-52
2022/11/03 02:46:31;;;;;;;;;;;22.50;45.90;;;;;;474708;251;1234;-53
2022/11/03 02:48:32;;;;;;;;;;;22.50;45.90;;;;;;474973;251;2161;-53
2022/11/03 02:50:33;;;;;;;;;;;22.50;46.00;;;;;;475015;251;1227;-53
2022/11/03 02:52:35;;;;;;;;;;;22.50;46.00;;;;;;475046;251;1374;-53
2022/11/03 02:54:37;;;;;;;;;;;22.50;45.90;;;;;;474937;251;1284;-53
2022/11/03 02:56:38;;;;;;;;;;;22.50;45.90;;;;;;474658;251;1937;-52
2022/11/03 02:58:39;;;;;;;;;;;22.50;46.00;;;;;;474891;251;1425;-53
2022/11/03 03:00:40;;;;;;;;;;;22.50;46.00;;;;;;474741;251;1225;-52
2022/11/03 03:02:41;;;;;;;;;;;22.60;45.90;;;;;;475025;251;1359;-53
2022/11/03 03:04:43;;;;;;;;;;;22.50;45.90;;;;;;474774;251;1236;-52
2022/11/03 03:06:44;;;;;;;;;;;22.50;46.00;;;;;;474603;251;1357;-52
2022/11/03 03:08:45;;;;;;;;;;;22.50;46.00;;;;;;474769;251;2197;-52
2022/11/03 03:10:47;;;;;;;;;;;22.50;45.90;;;;;;475029;251;1245;-52
2022/11/03 03:12:48;;;;;;;;;;;22.50;45.90;;;;;;474603;251;1253;-52
2022/11/03 03:14:49;;;;;;;;;;;22.60;46.00;;;;;;474608;251;1225;-53
2022/11/03 03:16:51;;;;;;;;;;;22.50;45.90;;;;;;474999;251;1257;-53
2022/11/03 03:18:52;;;;;;;;;;;22.50;45.90;;;;;;474951;251;1234;-53
2022/11/03 03:20:53;;;;;;;;;;;22.50;45.90;;;;;;474625;251;1329;-53
2022/11/03 03:22:55;;;;;;;;;;;22.60;46.00;;;;;;474616;251;1177;-53
2022/11/03 03:24:56;;;;;;;;;;;22.50;45.90;;;;;;475082;251;1265;-53
2022/11/03 03:26:58;;;;;;;;;;;22.50;45.90;;;;;;474747;251;1343;-52
2022/11/03 03:29:00;;;;;;;;;;;22.50;46.00;;;;;;474976;251;2153;-53
2022/11/03 03:31:01;;;;;;;;;;;22.50;45.90;;;;;;474814;251;1272;-52
2022/11/03 03:33:02;;;;;;;;;;;22.50;45.90;;;;;;474783;251;1251;-52
2022/11/03 03:35:04;;;;;;;;;;;22.50;45.90;;;;;;474634;251;1223;-53
2022/11/03 03:37:05;;;;;;;;;;;22.60;45.90;;;;;;474594;251;1190;-52
2022/11/03 03:39:06;;;;;;;;;;;22.50;45.90;;;;;;475061;251;1218;-53
2022/11/03 03:41:07;;;;;;;;;;;22.50;45.90;;;;;;474915;251;1224;-52
2022/11/03 03:43:09;;;;;;;;;;;22.50;45.90;;;;;;474615;251;1252;-53
2022/11/03 03:45:10;;;;;;;;;;;22.50;46.00;;;;;;474598;251;1568;-52
2022/11/03 03:47:11;;;;;;;;;;;22.50;46.00;;;;;;474602;251;1241;-53
2022/11/03 03:49:13;;;;;;;;;;;22.50;46.00;;;;;;474798;251;2149;-52
2022/11/03 03:51:14;;;;;;;;;;;22.50;45.90;;;;;;474974;251;1319;-52
2022/11/03 03:53:15;;;;;;;;;;;22.50;46.00;;;;;;474833;251;1352;-52
2022/11/03 03:55:17;;;;;;;;;;;22.50;46.10;;;;;;474824;251;1314;-52
2022/11/03 03:57:18;;;;;;;;;;;22.50;46.00;;;;;;474876;251;1664;-53
2022/11/03 03:59:19;;;;;;;;;;;22.60;46.00;;;;;;474832;251;1528;-53
2022/11/03 04:01:21;;;;;;;;;;;22.60;46.00;;;;;;474836;251;1230;-52
2022/11/03 04:03:22;;;;;;;;;;;22.50;46.00;;;;;;474846;251;1246;-53
2022/11/03 04:05:23;;;;;;;;;;;22.50;46.00;;;;;;475075;251;1251;-53
2022/11/03 04:09:44;;;;;;;;;;;22.50;46.00;;;;;;474650;251;2161;-52
2022/11/03 04:23:21;;;;;;;;;;;22.60;46.00;;;;;;474620;251;1313;-52
2022/11/03 04:25:22;;;;;;;;;;;22.50;45.90;;;;;;475032;251;1259;-52
2022/11/03 04:27:24;;;;;;;;;;;22.50;45.90;;;;;;474705;251;1233;-53
2022/11/03 04:29:25;;;;;;;;;;;22.50;45.90;;;;;;474624;251;2189;-53
2022/11/03 04:31:26;;;;;;;;;;;22.50;45.90;;;;;;474902;251;1247;-53
2022/11/03 04:33:28;;;;;;;;;;;22.50;45.90;;;;;;475067;251;1320;-52
2022/11/03 04:35:29;;;;;;;;;;;22.50;45.90;;;;;;474616;251;1260;-51
2022/11/03 04:37:30;;;;;;;;;;;22.50;45.90;;;;;;474892;251;1120;-52
2022/11/03 04:39:32;;;;;;;;;;;22.50;45.90;;;;;;475037;251;1401;-52
2022/11/03 04:41:33;;;;;;;;;;;22.50;45.90;;;;;;474669;251;1163;-52
2022/11/03 04:43:34;;;;;;;;;;;22.50;45.90;;;;;;475029;251;1430;-52
2022/11/03 04:45:37;;;;;;;;;;;22.50;45.90;;;;;;474742;251;1195;-53
2022/11/03 04:47:37;;;;;;;;;;;22.50;45.90;;;;;;474609;251;1998;-52
2022/11/03 04:49:39;;;;;;;;;;;22.50;45.90;;;;;;474683;251;2161;-52
2022/11/03 04:51:40;;;;;;;;;;;22.50;46.00;;;;;;474871;251;1078;-53
2022/11/03 04:53:41;;;;;;;;;;;22.50;45.90;;;;;;474638;251;1225;-52
2022/11/03 04:55:42;;;;;;;;;;;22.50;45.90;;;;;;474777;251;1115;-52
2022/11/03 04:57:44;;;;;;;;;;;22.50;45.90;;;;;;475091;251;1197;-52
2022/11/03 04:59:45;;;;;;;;;;;22.50;45.90;;;;;;474769;251;1247;-52
2022/11/03 05:01:46;;;;;;;;;;;22.50;45.90;;;;;;474873;251;1194;-52
2022/11/03 05:03:48;;;;;;;;;;;22.50;45.90;;;;;;474754;251;1197;-52
2022/11/03 05:05:49;;;;;;;;;;;22.50;45.90;;;;;;474652;251;1221;-53
2022/11/03 05:07:50;;;;;;;;;;;22.50;45.90;;;;;;475064;251;1222;-52
2022/11/03 05:09:52;;;;;;;;;;;22.50;45.90;;;;;;474789;251;2165;-53
2022/11/03 05:11:53;;;;;;;;;;;22.50;45.90;;;;;;474653;251;1196;-52
2022/11/03 05:13:55;;;;;;;;;;;22.60;45.90;;;;;;475055;251;1233;-52
2022/11/03 05:15:56;;;;;;;;;;;22.50;45.90;;;;;;475005;251;1218;-52
2022/11/03 05:17:57;;;;;;;;;;;22.50;45.90;;;;;;474678;251;1231;-52
2022/11/03 05:19:58;;;;;;;;;;;22.50;45.90;;;;;;474687;251;1105;-52
2022/11/03 05:22:00;;;;;;;;;;;22.50;45.90;;;;;;474817;251;1208;-53
2022/11/03 05:24:01;;;;;;;;;;;22.50;45.90;;;;;;474851;251;1312;-52
2022/11/03 05:26:03;;;;;;;;;;;22.50;45.90;;;;;;474649;251;1253;-52
2022/11/03 05:28:04;;;;;;;;;;;22.50;45.90;;;;;;474639;251;1211;-53
2022/11/03 05:30:05;;;;;;;;;;;22.50;45.90;;;;;;475021;251;2200;-52
2022/11/03 05:32:07;;;;;;;;;;;22.50;45.90;;;;;;474844;251;1212;-51
2022/11/03 05:34:08;;;;;;;;;;;22.50;45.90;;;;;;474991;251;1359;-52
2022/11/03 05:36:09;;;;;;;;;;;22.50;45.90;;;;;;474812;251;1195;-53
2022/11/03 05:38:11;;;;;;;;;;;22.50;45.90;;;;;;474611;251;1252;-53
2022/11/03 05:40:12;;;;;;;;;;;22.50;45.90;;;;;;475028;251;1282;-53
2022/11/03 05:42:13;;;;;;;;;;;22.50;45.90;;;;;;474600;251;1236;-53
2022/11/03 05:44:15;;;;;;;;;;;22.50;45.90;;;;;;475018;251;1240;-53
2022/11/03 05:46:16;;;;;;;;;;;22.50;45.80;;;;;;474724;251;1284;-52
2022/11/03 05:48:17;;;;;;;;;;;22.60;45.90;;;;;;474645;251;1334;-52
2022/11/03 05:50:19;;;;;;;;;;;22.50;45.80;;;;;;474977;251;2157;-52
2022/11/03 05:52:20;;;;;;;;;;;22.60;45.90;;;;;;474562;251;1241;-52
2022/11/03 05:54:21;;;;;;;;;;;22.60;45.90;;;;;;474589;251;1285;-52
2022/11/03 05:56:23;;;;;;;;;;;22.60;45.90;;;;;;474607;251;1189;-53
2022/11/03 05:58:24;;;;;;;;;;;22.60;45.90;;;;;;475075;251;1211;-53
2022/11/03 06:00:25;;;;;;;;;;;22.50;45.80;;;;;;474714;251;1173;-53
2022/11/03 06:02:26;;;;;;;;;;;22.50;45.90;;;;;;474866;251;1243;-52
2022/11/03 06:04:28;;;;;;;;;;;22.50;45.90;;;;;;474705;251;1244;-53
2022/11/03 06:06:29;;;;;;;;;;;22.50;45.90;;;;;;474685;251;1270;-52
2022/11/03 06:08:31;;;;;;;;;;;22.50;45.90;;;;;;474709;251;1294;-52
2022/11/03 06:10:32;;;;;;;;;;;22.60;45.90;;;;;;474578;251;2197;-53
2022/11/03 06:12:34;;;;;;;;;;;22.50;45.90;;;;;;474655;251;1268;-53
2022/11/03 06:14:35;;;;;;;;;;;22.50;45.90;;;;;;474596;251;1172;-52
2022/11/03 06:16:37;;;;;;;;;;;22.50;45.90;;;;;;474976;251;1212;-52
2022/11/03 06:18:38;;;;;;;;;;;22.50;45.90;;;;;;474566;251;1292;-52
2022/11/03 06:20:39;;;;;;;;;;;22.50;45.80;;;;;;475043;251;1187;-53
2022/11/03 06:22:41;;;;;;;;;;;22.50;45.80;;;;;;474705;251;1213;-53
2022/11/03 06:24:42;;;;;;;;;;;22.50;45.90;;;;;;475023;251;1217;-52
2022/11/03 06:26:43;;;;;;;;;;;22.50;45.90;;;;;;475079;251;1264;-52
2022/11/03 06:28:45;;;;;;;;;;;22.60;45.90;;;;;;474972;251;1172;-52
2022/11/03 06:30:46;;;;;;;;;;;22.60;45.90;;;;;;474746;251;2149;-53
2022/11/03 06:32:47;;;;;;;;;;;22.50;45.80;;;;;;474636;251;1322;-51
2022/11/03 06:34:49;;;;;;;;;;;22.50;45.80;;;;;;474691;251;1263;-53
2022/11/03 06:36:50;;;;;;;;;;;22.50;45.90;;;;;;474586;251;1299;-52
2022/11/03 06:38:52;;;;;;;;;;;22.50;45.90;;;;;;475048;251;1221;-53
2022/11/03 06:40:53;;;;;;;;;;;22.50;45.90;;;;;;474760;251;1274;-52
2022/11/03 06:42:54;;;;;;;;;;;22.50;45.90;;;;;;474560;251;1410;-52
2022/11/03 06:44:56;;;;;;;;;;;22.50;45.90;;;;;;474945;251;1291;-53
2022/11/03 06:46:57;;;;;;;;;;;22.50;45.90;;;;;;474933;251;1086;-52
2022/11/03 06:48:58;;;;;;;;;;;22.50;45.90;;;;;;474574;251;1214;-53
2022/11/03 06:50:59;;;;;;;;;;;22.60;45.90;;;;;;474638;251;2205;-53
2022/11/03 06:53:01;;;;;;;;;;;22.50;45.80;;;;;;474622;251;1120;-53
2022/11/03 06:55:02;;;;;;;;;;;22.50;45.90;;;;;;474488;251;1136;-53
2022/11/03 06:57:04;;;;;;;;;;;22.50;45.80;;;;;;474616;251;1159;-53
2022/11/03 06:59:05;;;;;;;;;;;22.50;45.90;;;;;;474593;251;1219;-52
2022/11/03 07:01:06;;;;;;;;;;;22.50;45.90;;;;;;474518;251;1129;-52
2022/11/03 07:03:07;;;;;;;;;;;22.60;46.00;;;;;;474617;251;1184;-53
2022/11/03 07:05:09;;;;;;;;;;;22.50;45.90;;;;;;474721;251;1197;-53
2022/11/03 07:07:10;;;;;;;;;;;22.50;45.80;;;;;;475020;251;1203;-52
2022/11/03 07:09:11;;;;;;;;;;;22.50;45.80;;;;;;474858;251;1489;-53
2022/11/03 07:11:13;;;;;;;;;;;22.50;45.80;;;;;;474721;251;2208;-53
2022/11/03 07:13:14;;;;;;;;;;;22.50;45.80;;;;;;474818;251;1208;-53
2022/11/03 07:15:15;;;;;;;;;;;22.50;45.80;;;;;;474518;251;1249;-53
2022/11/03 07:17:19;;;;;;;;;;;22.60;45.80;;;;;;474967;251;1273;-53
2022/11/03 07:19:18;;;;;;;;;;;22.50;45.80;;;;;;474389;251;1967;-52
2022/11/03 07:21:19;;;;;;;;;;;22.50;45.70;;;;;;474675;251;1261;-52
2022/11/03 07:23:21;;;;;;;;;;;22.50;45.70;;;;;;474470;251;1274;-53
2022/11/03 07:25:22;;;;;;;;;;;22.50;45.70;;;;;;474536;251;1237;-52
2022/11/03 07:27:23;;;;;;;;;;;22.50;45.70;;;;;;474897;251;1190;-53
2022/11/03 07:29:25;;;;;;;;;;;22.50;45.60;;;;;;474980;251;1204;-53
2022/11/03 07:31:26;;;;;;;;;;;22.50;45.70;;;;;;474994;251;2162;-53
2022/11/03 07:33:27;;;;;;;;;;;22.50;45.60;;;;;;474558;251;2058;-53
2022/11/03 07:35:29;;;;;;;;;;;22.50;45.60;;;;;;474808;251;1114;-53
2022/11/03 07:37:30;;;;;;;;;;;22.50;45.60;;;;;;474590;251;1321;-52
2022/11/03 07:39:31;;;;;;;;;;;22.50;45.60;;;;;;474699;251;1246;-53
2022/11/03 07:41:33;;;;;;;;;;;22.60;45.60;;;;;;474495;251;1256;-52
2022/11/03 07:43:34;;;;;;;;;;;22.60;45.60;;;;;;474662;251;1285;-53
2022/11/03 07:45:35;;;;;;;;;;;22.60;45.60;;;;;;474704;251;1172;-52
2022/11/03 07:47:37;;;;;;;;;;;22.60;45.50;;;;;;474558;251;1299;-53
2022/11/03 07:49:38;;;;;;;;;;;22.60;45.50;;;;;;474459;251;1209;-52
2022/11/03 07:51:40;;;;;;;;;;;22.60;45.50;;;;;;474512;251;2157;-53
2022/11/03 07:53:41;;;;;;;;;;;22.60;45.50;;;;;;474479;251;1454;-52
2022/11/03 07:55:42;;;;;;;;;;;22.60;45.50;;;;;;474385;251;1222;-53
2022/11/03 07:57:44;;;;;;;;;;;22.50;45.50;;;;;;474329;251;1248;-53
2022/11/03 07:59:45;;;;;;;;;;;22.60;45.50;;;;;;474346;251;1227;-51
2022/11/03 08:01:46;;;;;;;;;;;22.60;45.50;;;;;;474230;251;1675;-53
2022/11/03 08:03:48;;;;;;;;;;;22.50;45.40;;;;;;474566;251;1284;-52
2022/11/03 08:05:49;;;;;;;;;;;22.60;45.50;;;;;;474467;251;1809;-53
2022/11/03 08:07:50;;;;;;;;;;;22.60;45.50;;;;;;474357;251;1303;-53
2022/11/03 08:09:52;;;;;;;;;;;22.60;45.50;;;;;;474428;251;1271;-52
2022/11/03 08:11:53;;;;;;;;;;;22.60;45.40;;;;;;474495;251;2138;-53
2022/11/03 08:13:54;;;;;;;;;;;22.60;45.40;;;;;;474335;251;1259;-53
2022/11/03 08:15:56;;;;;;;;;;;22.60;45.40;;;;;;474455;251;1303;-53
2022/11/03 08:17:57;;;;;;;;;;;22.60;45.40;;;;;;474325;251;1565;-52
2022/11/03 08:19:58;;;;;;;;;;;22.60;45.40;;;;;;474379;251;1222;-52
2022/11/03 08:22:00;;;;;;;;;;;22.60;45.40;;;;;;474555;251;1237;-53
2022/11/03 08:24:01;;;;;;;;;;;22.60;45.40;;;;;;474300;251;1328;-52
2022/11/03 08:26:02;;;;;;;;;;;22.60;45.40;;;;;;474594;251;1218;-52
2022/11/03 08:28:04;;;;;;;;;;;22.60;45.40;;;;;;474386;251;1209;-52
2022/11/03 08:30:05;;;;;;;;;;;22.60;45.30;;;;;;474490;251;1288;-53
2022/11/03 08:32:06;;;;;;;;;;;22.60;45.40;;;;;;474336;251;2132;-53
2022/11/03 08:34:08;;;;;;;;;;;22.60;45.40;;;;;;474470;251;1232;-52
2022/11/03 08:36:09;;;;;;;;;;;22.60;45.40;;;;;;474406;251;1678;-52
2022/11/03 08:38:10;;;;;;;;;;;22.60;45.40;;;;;;474454;251;1260;-53
2022/11/03 08:40:12;;;;;;;;;;;22.60;45.40;;;;;;474348;251;1316;-53
2022/11/03 08:42:14;;;;;;;;;;;22.60;45.40;;;;;;474312;251;1247;-53
2022/11/03 08:44:15;;;;;;;;;;;22.60;45.40;;;;;;474705;251;1222;-52
2022/11/03 08:46:16;;;;;;;;;;;22.60;45.40;;;;;;474423;251;1382;-53
2022/11/03 08:48:17;;;;;;;;;;;22.60;45.30;;;;;;474381;251;1442;-52
2022/11/03 08:50:19;;;;;;;;;;;22.60;45.40;;;;;;474426;251;2173;-53
2022/11/03 08:52:20;;;;;;;;;;;22.60;45.30;;;;;;474317;251;1378;-52
2022/11/03 08:54:21;;;;;;;;;;;22.60;45.30;;;;;;474388;251;1517;-52
2022/11/03 08:56:23;;;;;;;;;;;22.60;45.30;;;;;;474276;251;1302;-53
2022/11/03 08:58:24;;;;;;;;;;;22.60;45.30;;;;;;474353;251;1168;-53
2022/11/03 09:00:25;;;;;;;;;;;22.60;45.30;;;;;;474060;251;1279;-53
2022/11/03 09:02:27;;;;;;;;;;;22.60;45.30;;;;;;473952;251;1278;-53
2022/11/03 09:04:28;;;;;;;;;;;22.60;45.30;;;;;;473879;251;1243;-52
2022/11/03 09:06:29;;;;;;;;;;;22.60;45.30;;;;;;474178;251;1170;-53
2022/11/03 09:08:31;;;;;;;;;;;22.60;45.30;;;;;;474121;251;1295;-52
2022/11/03 09:10:32;;;;;;;;;;;22.60;45.30;;;;;;474353;251;2189;-53
2022/11/03 09:12:33;;;;;;;;;;;22.60;45.30;;;;;;474292;251;1252;-53
2022/11/03 09:14:35;;;;;;;;;;;22.60;45.30;;;;;;474451;251;1276;-52
2022/11/03 09:16:36;;;;;;;;;;;22.60;45.30;;;;;;474362;251;1566;-52
2022/11/03 09:18:37;;;;;;;;;;;22.60;45.30;;;;;;474516;251;1212;-53
2022/11/03 09:20:39;;;;;;;;;;;22.60;45.30;;;;;;474382;251;1625;-52
2022/11/03 09:22:40;;;;;;;;;;;22.60;45.20;;;;;;474317;251;1286;-53
2022/11/03 09:24:41;;;;;;;;;;;22.60;45.30;;;;;;474650;251;1119;-52
2022/11/03 09:26:43;;;;;;;;;;;22.60;45.30;;;;;;474207;251;1232;-52
2022/11/03 09:28:44;;;;;;;;;;;22.60;45.30;;;;;;474467;251;1191;-53
2022/11/03 09:30:45;;;;;;;;;;;22.60;45.20;;;;;;474320;251;2201;-53
2022/11/03 09:32:47;;;;;;;;;;;22.60;45.20;;;;;;474302;251;1356;-52
2022/11/03 09:34:48;;;;;;;;;;;22.60;45.30;;;;;;474250;251;1258;-52
2022/11/03 09:36:49;;;;;;;;;;;22.60;45.30;;;;;;474339;251;1337;-53
2022/11/03 09:38:51;;;;;;;;;;;22.60;45.20;;;;;;474289;251;1254;-52
2022/11/03 09:40:52;;;;;;;;;;;22.60;45.30;;;;;;474259;251;1215;-51
2022/11/03 09:42:53;;;;;;;;;;;22.60;45.20;;;;;;474321;251;1210;-52
2022/11/03 09:44:55;;;;;;;;;;;22.60;45.20;;;;;;474364;251;1379;-53
2022/11/03 09:46:56;;;;;;;;;;;22.60;45.20;;;;;;474018;251;1213;-53
2022/11/03 09:48:57;;;;;;;;;;;22.60;45.20;;;;;;474116;251;1192;-53
2022/11/03 09:51:00;;;;;;;;;;;22.60;45.30;;;;;;474284;251;2181;-53
2022/11/03 09:53:00;;;;;;;;;;;22.60;45.30;;;;;;474201;251;2139;-52
2022/11/03 09:55:02;;;;;;;;;;;22.60;45.30;;;;;;474581;251;1228;-53
2022/11/03 09:57:03;;;;;;;;;;;22.60;45.30;;;;;;474418;251;1089;-53
2022/11/03 09:59:04;;;;;;;;;;;22.60;45.30;;;;;;474490;251;1264;-53
2022/11/03 10:01:06;;;;;;;;;;;22.60;45.20;;;;;;474463;251;1230;-52
2022/11/03 10:03:07;;;;;;;;;;;22.60;45.20;;;;;;474437;251;1448;-53
2022/11/03 10:05:08;;;;;;;;;;;22.60;45.20;;;;;;474513;251;1212;-53
2022/11/03 10:07:10;;;;;;;;;;;22.60;45.20;;;;;;474421;251;1315;-52
2022/11/03 10:09:11;;;;;;;;;;;22.60;45.30;;;;;;474464;251;1333;-52
2022/11/03 10:11:12;;;;;;;;;;;22.60;45.30;;;;;;474488;251;2201;-53
2022/11/03 10:13:14;;;;;;;;;;;22.60;45.30;;;;;;474439;251;1218;-52
2022/11/03 10:15:15;;;;;;;;;;;22.60;45.30;;;;;;474298;251;1201;-53
2022/11/03 10:17:16;;;;;;;;;;;22.60;45.20;;;;;;474459;251;1246;-53
2022/11/03 10:19:18;;;;;;;;;;;22.60;45.20;;;;;;474454;251;1133;-52
2022/11/03 10:21:19;;;;;;;;;;;22.60;45.20;;;;;;474403;251;1745;-53
2022/11/03 10:23:20;;;;;;;;;;;22.70;45.30;;;;;;474429;251;1198;-52
2022/11/03 10:25:21;;;;;;;;;;;22.60;45.20;;;;;;474701;251;1186;-53
2022/11/03 10:27:24;;;;;;;;;;;22.60;45.20;;;;;;474588;251;1242;-53
2022/11/03 10:29:24;;;;;;;;;;;22.70;45.20;;;;;;474345;251;1750;-53
2022/11/03 10:31:26;;;;;;;;;;;22.70;45.30;;;;;;474092;251;2158;-53
2022/11/03 10:33:27;;;;;;;;;;;22.60;45.20;;;;;;474494;251;1201;-53
2022/11/03 10:35:28;;;;;;;;;;;22.60;45.20;;;;;;474241;251;1208;-52
2022/11/03 10:37:30;;;;;;;;;;;22.60;45.20;;;;;;474214;251;1649;-53
2022/11/03 10:39:31;;;;;;;;;;;22.60;45.30;;;;;;474272;251;1254;-52
2022/11/03 10:41:32;;;;;;;;;;;22.60;45.20;;;;;;474426;251;1944;-52
2022/11/03 10:43:34;;;;;;;;;;;22.60;45.20;;;;;;474316;251;1476;-53
2022/11/03 10:45:35;;;;;;;;;;;22.60;45.20;;;;;;474163;251;1531;-52
2022/11/03 10:47:36;;;;;;;;;;;22.60;45.20;;;;;;474117;251;1607;-52
2022/11/03 10:49:38;;;;;;;;;;;22.60;45.20;;;;;;474388;251;1219;-53
2022/11/03 10:51:39;;;;;;;;;;;22.60;45.20;;;;;;474309;251;2201;-52
2022/11/03 10:53:42;;;;;;;;;;;22.70;45.30;;;;;;474311;251;1215;-53
2022/11/03 10:55:43;;;;;;;;;;;22.60;45.30;;;;;;474646;251;1249;-53
2022/11/03 10:57:44;;;;;;;;;;;22.60;45.20;;;;;;474380;251;1238;-52
2022/11/03 10:59:46;;;;;;;;;;;22.60;45.30;;;;;;474363;251;1191;-53
2022/11/03 11:01:47;;;;;;;;;;;22.60;45.20;;;;;;474310;251;1456;-52
2022/11/03 11:03:48;;;;;;;;;;;22.60;45.30;;;;;;474407;251;1294;-51
2022/11/03 11:05:49;;;;;;;;;;;22.60;45.20;;;;;;474636;251;1203;-53
2022/11/03 11:07:51;;;;;;;;;;;22.60;45.20;;;;;;474372;251;1351;-53
2022/11/03 11:09:52;;;;;;;;;;;22.70;45.30;;;;;;474372;251;1274;-53
2022/11/03 11:11:53;;;;;;;;;;;22.60;45.20;;;;;;474377;251;2158;-53
2022/11/03 11:13:55;;;;;;;;;;;22.60;45.20;;;;;;474335;251;1295;-53
2022/11/03 11:15:56;;;;;;;;;;;22.70;45.20;;;;;;474183;251;1283;-53
2022/11/03 11:17:57;;;;;;;;;;;22.70;45.20;;;;;;474184;251;1286;-53
2022/11/03 11:19:59;;;;;;;;;;;22.60;45.20;;;;;;474277;251;1272;-53
2022/11/03 11:22:00;;;;;;;;;;;22.60;45.20;;;;;;474371;251;1301;-52
2022/11/03 11:24:01;;;;;;;;;;;22.70;45.20;;;;;;474187;251;1180;-52
2022/11/03 11:26:03;;;;;;;;;;;22.70;45.20;;;;;;474386;251;1181;-53
2022/11/03 11:28:04;;;;;;;;;;;22.70;45.10;;;;;;474361;251;1218;-52
2022/11/03 11:30:06;;;;;;;;;;;22.70;45.20;;;;;;474683;251;1200;-53
2022/11/03 11:32:07;;;;;;;;;;;22.70;45.20;;;;;;474472;251;2138;-52
2022/11/03 11:34:08;;;;;;;;;;;22.60;45.20;;;;;;474489;251;1329;-52
2022/11/03 11:36:10;;;;;;;;;;;22.70;45.20;;;;;;474322;251;1243;-53
2022/11/03 11:38:11;;;;;;;;;;;22.70;45.20;;;;;;474315;251;1160;-52
2022/11/03 11:40:13;;;;;;;;;;;22.60;45.20;;;;;;474384;251;1197;-52
2022/11/03 11:42:15;;;;;;;;;;;22.70;45.30;;;;;;474347;251;1255;-53
2022/11/03 11:44:15;;;;;;;;;;;22.70;45.20;;;;;;474420;251;1730;-53
2022/11/03 11:46:17;;;;;;;;;;;22.70;45.20;;;;;;474368;251;1197;-53
2022/11/03 11:48:18;;;;;;;;;;;22.70;45.20;;;;;;474409;251;1245;-52
2022/11/03 11:50:19;;;;;;;;;;;22.60;45.20;;;;;;474867;251;1190;-53
2022/11/03 11:52:21;;;;;;;;;;;22.60;45.20;;;;;;474431;246;2169;-53
2022/11/03 11:54:22;;;;;;;;;;;22.60;45.20;;;;;;474366;251;1371;-52
2022/11/03 11:56:23;;;;;;;;;;;22.60;45.20;;;;;;474457;251;1184;-52
2022/11/03 11:58:25;;;;;;;;;;;22.60;45.30;;;;;;474560;251;1188;-53
2022/11/03 12:00:26;;;;;;;;;;;22.60;45.20;;;;;;474571;251;1330;-53
2022/11/03 12:02:27;;;;;;;;;;;22.60;45.20;;;;;;474605;251;1215;-53
2022/11/03 12:04:30;;;;;;;;;;;22.60;45.30;;;;;;474464;251;1229;-53
2022/11/03 12:06:30;;;;;;;;;;;22.60;45.20;;;;;;474482;251;1803;-53
2022/11/03 12:08:31;;;;;;;;;;;22.60;45.20;;;;;;474289;251;1274;-53
2022/11/03 12:10:33;;;;;;;;;;;22.70;45.20;;;;;;474234;251;1243;-53
2022/11/03 12:12:34;;;;;;;;;;;22.70;45.20;;;;;;474424;251;2201;-53
2022/11/03 12:14:35;;;;;;;;;;;22.60;45.20;;;;;;474420;251;1610;-53
2022/11/03 12:16:37;;;;;;;;;;;22.70;45.10;;;;;;474417;251;1237;-53
2022/11/03 12:18:38;;;;;;;;;;;22.70;45.10;;;;;;474363;251;1257;-53